createdAt,value
2022-11-30T00:01:36.915Z,97265.00
2022-11-30T00:04:05.141Z,97295.00
2022-11-30T00:06:33.200Z,97308.00
2022-11-30T00:09:01.445Z,97303.00
2022-11-30T00:11:30.103Z,97308.00
2022-11-30T00:14:00.743Z,97295.00
2022-11-30T00:16:30.241Z,97303.00
2022-11-30T00:18:58.321Z,97306.00
2022-11-30T00:21:26.437Z,97312.00
2022-11-30T00:23:54.502Z,97298.00
2022-11-30T00:26:23.159Z,97285.00
2022-11-30T00:28:51.243Z,97290.00
2022-11-30T00:31:21.038Z,97304.00
2022-11-30T00:33:50.558Z,97331.00
2022-11-30T00:36:22.926Z,97332.00
2022-11-30T00:38:52.292Z,97320.00
2022-11-30T00:41:21.667Z,97323.00
2022-11-30T00:43:50.000Z,97331.00
2022-11-30T00:46:18.172Z,97335.00
2022-11-30T00:48:46.573Z,97321.00
2022-11-30T00:51:16.158Z,97321.00
2022-11-30T00:53:44.987Z,97326.00
2022-11-30T00:56:13.059Z,97333.00
2022-11-30T00:58:41.304Z,97333.00
2022-11-30T01:01:09.947Z,97340.00
2022-11-30T01:03:38.799Z,97317.00
2022-11-30T01:06:10.948Z,97256.00
2022-11-30T01:08:40.546Z,97332.00
2022-11-30T01:11:13.964Z,97336.00
2022-11-30T01:13:42.245Z,97315.00
2022-11-30T01:16:13.029Z,97334.00
2022-11-30T01:18:41.289Z,97334.00
2022-11-30T01:21:13.361Z,97305.00
2022-11-30T01:23:43.493Z,97335.00
2022-11-30T01:26:12.159Z,97320.00
2022-11-30T01:28:41.058Z,97283.00
2022-11-30T01:31:12.316Z,97266.00
2022-11-30T01:33:43.015Z,97323.00
2022-11-30T01:36:14.982Z,97320.00
2022-11-30T01:38:47.961Z,97332.00
2022-11-30T01:41:22.795Z,97324.00
2022-11-30T01:43:53.462Z,97325.00
2022-11-30T01:46:37.349Z,97323.00
2022-11-30T01:49:15.566Z,97321.00
2022-11-30T01:51:50.919Z,97310.00
2022-11-30T01:54:24.935Z,97322.00
2022-11-30T01:56:59.452Z,97315.00
2022-11-30T01:59:28.182Z,97317.00
2022-11-30T02:01:57.416Z,97319.00
2022-11-30T02:04:30.752Z,97322.00
2022-11-30T02:07:00.710Z,97326.00
2022-11-30T02:09:32.473Z,97310.00
2022-11-30T02:12:03.855Z,97312.00
2022-11-30T02:14:40.709Z,97273.00
2022-11-30T02:17:21.712Z,97229.00
2022-11-30T02:20:30.375Z,97298.00
2022-11-30T02:23:25.378Z,97306.00
2022-11-30T02:26:09.825Z,97309.00
2022-11-30T02:29:01.451Z,97336.00
2022-11-30T02:31:39.168Z,97321.00
2022-11-30T02:34:10.738Z,97330.00
2022-11-30T02:36:39.227Z,97312.00
2022-11-30T02:39:08.814Z,97313.00
2022-11-30T02:41:38.797Z,97312.00
2022-11-30T02:44:12.356Z,97312.00
2022-11-30T02:47:00.627Z,97307.00
2022-11-30T02:49:38.558Z,97311.00
2022-11-30T02:52:09.159Z,97309.00
2022-11-30T02:54:37.344Z,97312.00
2022-11-30T02:57:05.456Z,97330.00
2022-11-30T02:59:34.930Z,97318.00
2022-11-30T03:02:03.014Z,97323.00
2022-11-30T03:04:31.066Z,97335.00
2022-11-30T03:06:59.128Z,97321.00
2022-11-30T03:09:27.236Z,97336.00
2022-11-30T03:11:55.286Z,97334.00
2022-11-30T03:14:23.569Z,97323.00
2022-11-30T03:16:53.016Z,97334.00
2022-11-30T03:19:21.187Z,97293.00
2022-11-30T03:21:49.241Z,97324.00
2022-11-30T03:24:17.379Z,97341.00
2022-11-30T03:26:45.561Z,97327.00
2022-11-30T03:29:13.595Z,97325.00
2022-11-30T03:31:41.636Z,97322.00
2022-11-30T03:34:11.233Z,97325.00
2022-11-30T03:36:39.295Z,97334.00
2022-11-30T03:39:07.529Z,97326.00
2022-11-30T03:41:35.542Z,97336.00
2022-11-30T03:44:03.849Z,97332.00
2022-11-30T03:46:31.942Z,97334.00
2022-11-30T03:48:59.958Z,97331.00
2022-11-30T03:51:29.347Z,97338.00
2022-11-30T03:53:57.727Z,97330.00
2022-11-30T03:56:25.923Z,97331.00
2022-11-30T03:58:54.145Z,97337.00
2022-11-30T04:01:23.868Z,97369.00
2022-11-30T04:03:53.348Z,97350.00
2022-11-30T04:06:22.576Z,97347.00
2022-11-30T04:08:52.042Z,97344.00
2022-11-30T04:11:20.212Z,97333.00
2022-11-30T04:13:48.284Z,97333.00
2022-11-30T04:16:16.515Z,97323.00
2022-11-30T04:18:44.639Z,97330.00
2022-11-30T04:21:12.893Z,97330.00
2022-11-30T04:23:42.315Z,97334.00
2022-11-30T04:26:15.698Z,97328.00
2022-11-30T04:28:44.680Z,97345.00
2022-11-30T04:31:13.050Z,97335.00
2022-11-30T04:33:41.368Z,97279.00
2022-11-30T04:36:19.727Z,97353.00
2022-11-30T04:38:48.430Z,97343.00
2022-11-30T04:41:17.979Z,97346.00
2022-11-30T04:43:46.127Z,97337.00
2022-11-30T04:46:14.664Z,97332.00
2022-11-30T04:48:42.861Z,97344.00
2022-11-30T04:51:11.183Z,97349.00
2022-11-30T04:53:40.099Z,97354.00
2022-11-30T04:56:10.021Z,97346.00
2022-11-30T04:58:40.228Z,97346.00
2022-11-30T05:01:08.675Z,97348.00
2022-11-30T05:03:36.802Z,97353.00
2022-11-30T05:06:05.705Z,97353.00
2022-11-30T05:08:33.787Z,97356.00
2022-11-30T05:11:01.828Z,97360.00
2022-11-30T05:13:30.156Z,97370.00
2022-11-30T05:15:59.692Z,97377.00
2022-11-30T05:18:29.328Z,97368.00
2022-11-30T05:20:57.386Z,97374.00
2022-11-30T05:23:25.422Z,97371.00
2022-11-30T05:25:53.497Z,97374.00
2022-11-30T05:28:21.716Z,97378.00
2022-11-30T05:30:49.846Z,97364.00
2022-11-30T05:33:19.223Z,97373.00
2022-11-30T05:35:47.290Z,97375.00
2022-11-30T05:38:15.744Z,97366.00
2022-11-30T05:40:43.774Z,97368.00
2022-11-30T05:43:12.647Z,97367.00
2022-11-30T05:45:41.084Z,97385.00
2022-11-30T05:48:09.650Z,97386.00
2022-11-30T05:50:39.062Z,97372.00
2022-11-30T05:53:07.141Z,97371.00
2022-11-30T05:55:35.267Z,97376.00
2022-11-30T05:58:03.352Z,97380.00
2022-11-30T06:00:31.431Z,97383.00
2022-11-30T06:03:00.255Z,97331.00
2022-11-30T06:05:29.316Z,97379.00
2022-11-30T06:08:00.989Z,97386.00
2022-11-30T06:10:29.151Z,97385.00
2022-11-30T06:12:57.261Z,97380.00
2022-11-30T06:15:25.309Z,97382.00
2022-11-30T06:17:56.181Z,97384.00
2022-11-30T06:20:24.234Z,97376.00
2022-11-30T06:22:52.282Z,97382.00
2022-11-30T06:25:21.733Z,97381.00
2022-11-30T06:27:49.790Z,97377.00
2022-11-30T06:30:18.605Z,97362.00
2022-11-30T06:32:47.367Z,97377.00
2022-11-30T06:35:15.726Z,97397.00
2022-11-30T06:37:44.092Z,97394.00
2022-11-30T06:40:14.459Z,97410.00
2022-11-30T06:42:44.132Z,97389.00
2022-11-30T06:45:12.791Z,97369.00
2022-11-30T06:47:40.971Z,97379.00
2022-11-30T06:50:09.792Z,97364.00
2022-11-30T06:52:37.868Z,97374.00
2022-11-30T06:55:08.019Z,97377.00
2022-11-30T06:57:36.081Z,97381.00
2022-11-30T07:00:08.429Z,97380.00
2022-11-30T07:02:37.363Z,97379.00
2022-11-30T07:05:06.519Z,97382.00
2022-11-30T07:07:34.711Z,97380.00
2022-11-30T07:10:02.922Z,97404.00
2022-11-30T07:12:30.973Z,97377.00
2022-11-30T07:14:59.019Z,97382.00
2022-11-30T07:17:28.442Z,97392.00
2022-11-30T07:19:56.466Z,97395.00
2022-11-30T07:22:24.520Z,97394.00
2022-11-30T07:25:10.163Z,97392.00
2022-11-30T07:27:38.245Z,97391.00
2022-11-30T07:30:08.491Z,97396.00
2022-11-30T07:32:37.989Z,97401.00
2022-11-30T07:35:06.539Z,97399.00
2022-11-30T07:37:34.620Z,97399.00
2022-11-30T07:40:03.028Z,97391.00
2022-11-30T07:42:31.274Z,97390.00
2022-11-30T07:45:00.098Z,97396.00
2022-11-30T07:47:28.331Z,97401.00
2022-11-30T07:49:57.774Z,97401.00
2022-11-30T07:52:25.920Z,97406.00
2022-11-30T07:54:53.987Z,97404.00
2022-11-30T07:57:22.054Z,97389.00
2022-11-30T07:59:50.490Z,97406.00
2022-11-30T08:02:18.756Z,97409.00
2022-11-30T08:04:47.316Z,97395.00
2022-11-30T08:07:17.333Z,97396.00
2022-11-30T08:09:46.021Z,97401.00
2022-11-30T08:12:14.125Z,97410.00
2022-11-30T08:15:17.540Z,97412.00
2022-11-30T08:17:30.324Z,97412.00
2022-11-30T08:19:58.382Z,97421.00
2022-11-30T08:22:27.839Z,97418.00
2022-11-30T08:24:55.899Z,97417.00
2022-11-30T08:27:23.978Z,97425.00
2022-11-30T08:29:52.573Z,97342.00
2022-11-30T08:32:20.879Z,97443.00
2022-11-30T08:34:49.250Z,97436.00
2022-11-30T08:37:17.426Z,97434.00
2022-11-30T08:39:46.882Z,97434.00
2022-11-30T08:42:15.057Z,97445.00
2022-11-30T08:44:43.151Z,97452.00
2022-11-30T08:47:11.247Z,97431.00
2022-11-30T08:49:39.517Z,97439.00
2022-11-30T08:52:22.916Z,97454.00
2022-11-30T08:54:52.734Z,97453.00
2022-11-30T08:57:22.745Z,97460.00
2022-11-30T08:59:50.837Z,97454.00
2022-11-30T09:02:20.200Z,97435.00
2022-11-30T09:04:51.249Z,97442.00
2022-11-30T09:07:19.859Z,97465.00
2022-11-30T09:09:48.121Z,97463.00
2022-11-30T09:12:17.841Z,97465.00
2022-11-30T09:14:48.640Z,97472.00
2022-11-30T09:17:19.056Z,97462.00
2022-11-30T09:19:47.148Z,97468.00
2022-11-30T09:22:15.193Z,97483.00
2022-11-30T09:24:43.274Z,97493.00
2022-11-30T09:27:11.406Z,97477.00
2022-11-30T09:29:40.909Z,97460.00
2022-11-30T09:32:08.992Z,97457.00
2022-11-30T09:34:37.188Z,97465.00
2022-11-30T09:37:05.318Z,97464.00
2022-11-30T09:39:33.407Z,97458.00
2022-11-30T09:42:30.243Z,97459.00
2022-11-30T09:45:09.654Z,97464.00
2022-11-30T09:48:29.811Z,97458.00
2022-11-30T09:51:04.995Z,97464.00
2022-11-30T09:53:42.192Z,97474.00
2022-11-30T09:56:22.750Z,97464.00
2022-11-30T09:58:58.975Z,97412.00
2022-11-30T10:01:32.718Z,97464.00
2022-11-30T10:04:01.630Z,97412.00
2022-11-30T10:06:44.218Z,97458.00
2022-11-30T10:09:35.463Z,97450.00
2022-11-30T10:12:10.231Z,97461.00
2022-11-30T10:15:05.109Z,97453.00
2022-11-30T10:17:46.878Z,97457.00
2022-11-30T10:20:47.492Z,97438.00
2022-11-30T10:23:36.958Z,97444.00
2022-11-30T10:26:11.845Z,97445.00
2022-11-30T10:28:51.783Z,97457.00
2022-11-30T10:31:22.917Z,97445.00
2022-11-30T10:33:56.420Z,97436.00
2022-11-30T10:36:37.295Z,97444.00
2022-11-30T10:39:16.055Z,97436.00
2022-11-30T10:41:52.026Z,97448.00
2022-11-30T10:44:27.646Z,97434.00
2022-11-30T10:47:03.901Z,97434.00
2022-11-30T10:49:37.103Z,97444.00
2022-11-30T10:52:10.085Z,97434.00
2022-11-30T10:54:38.518Z,97432.00
2022-11-30T10:57:08.840Z,97457.00
2022-11-30T10:59:45.750Z,97449.00
2022-11-30T11:02:41.024Z,97458.00
2022-11-30T11:05:18.841Z,97460.00
2022-11-30T11:07:52.424Z,97400.00
2022-11-30T11:10:25.735Z,97371.00
2022-11-30T11:12:55.915Z,97463.00
2022-11-30T11:15:26.733Z,97450.00
2022-11-30T11:18:12.340Z,97444.00
2022-11-30T11:20:43.644Z,97448.00
2022-11-30T11:23:24.290Z,97455.00
2022-11-30T11:25:54.161Z,97447.00
2022-11-30T11:28:24.437Z,97442.00
2022-11-30T11:30:56.926Z,97447.00
2022-11-30T11:33:27.622Z,97447.00
2022-11-30T11:36:15.488Z,97454.00
2022-11-30T11:38:47.270Z,97461.00
2022-11-30T11:41:23.546Z,97443.00
2022-11-30T11:44:05.397Z,97450.00
2022-11-30T11:46:37.382Z,97480.00
2022-11-30T11:49:09.201Z,97453.00
2022-11-30T11:51:41.507Z,97478.00
2022-11-30T11:54:24.508Z,97479.00
2022-11-30T11:56:55.735Z,97489.00
2022-11-30T11:59:38.929Z,97483.00
2022-11-30T12:02:24.797Z,97475.00
2022-11-30T12:04:56.758Z,97469.00
2022-11-30T12:07:34.058Z,97480.00
2022-11-30T12:10:50.167Z,97480.00
2022-11-30T12:13:16.398Z,97479.00
2022-11-30T12:16:04.196Z,97486.00
2022-11-30T12:18:43.826Z,97479.00
2022-11-30T12:21:17.123Z,97481.00
2022-11-30T12:24:19.147Z,97481.00
2022-11-30T12:26:55.087Z,97486.00
2022-11-30T12:29:29.808Z,97489.00
2022-11-30T12:32:21.077Z,97479.00
2022-11-30T12:35:06.627Z,97486.00
2022-11-30T12:37:49.241Z,97495.00
2022-11-30T12:40:35.335Z,97475.00
2022-11-30T12:43:18.247Z,97480.00
2022-11-30T12:45:48.218Z,97482.00
2022-11-30T12:48:32.792Z,97482.00
2022-11-30T12:51:18.748Z,97471.00
2022-11-30T12:53:59.982Z,97483.00
2022-11-30T12:56:46.220Z,97482.00
2022-11-30T12:59:29.346Z,97490.00
2022-11-30T13:02:27.063Z,97486.00
2022-11-30T13:05:01.986Z,97491.00
2022-11-30T13:07:38.801Z,97434.00
2022-11-30T13:10:28.602Z,97455.00
2022-11-30T13:13:01.133Z,97513.00
2022-11-30T13:15:34.092Z,97493.00
2022-11-30T13:18:04.540Z,97489.00
2022-11-30T13:20:42.049Z,97498.00
2022-11-30T13:23:17.077Z,97492.00
2022-11-30T13:26:10.719Z,97490.00
2022-11-30T13:28:57.764Z,97497.00
2022-11-30T13:31:31.011Z,97503.00
2022-11-30T13:34:00.777Z,97499.00
2022-11-30T13:36:38.955Z,97498.00
2022-11-30T13:39:35.307Z,97504.00
2022-11-30T13:42:35.393Z,97505.00
2022-11-30T13:45:36.387Z,97496.00
2022-11-30T13:48:32.335Z,97492.00
2022-11-30T13:51:01.333Z,97503.00
2022-11-30T13:53:34.003Z,97502.00
2022-11-30T13:56:29.241Z,97517.00
2022-11-30T13:59:40.723Z,97517.00
2022-11-30T14:02:54.053Z,97502.00
2022-11-30T14:05:40.976Z,97490.00
2022-11-30T14:08:34.472Z,97505.00
2022-11-30T14:11:42.171Z,97489.00
2022-11-30T14:14:47.627Z,97464.00
2022-11-30T14:17:22.002Z,97486.00
2022-11-30T14:19:53.778Z,97503.00
2022-11-30T14:22:22.955Z,97498.00
2022-11-30T14:24:51.849Z,97497.00
2022-11-30T14:27:24.472Z,97529.00
2022-11-30T14:30:00.423Z,97509.00
2022-11-30T14:32:38.944Z,97519.00
2022-11-30T14:35:13.274Z,97511.00
2022-11-30T14:37:52.356Z,97550.00
2022-11-30T14:40:24.488Z,97518.00
2022-11-30T14:42:55.164Z,97522.00
2022-11-30T14:45:27.880Z,97512.00
2022-11-30T14:48:08.318Z,97520.00
2022-11-30T14:50:38.019Z,97510.00
2022-11-30T14:53:23.049Z,97510.00
2022-11-30T14:55:59.943Z,97495.00
2022-11-30T14:58:40.549Z,97497.00
2022-11-30T15:01:22.969Z,97505.00
2022-11-30T15:03:54.890Z,97512.00
2022-11-30T15:06:30.480Z,97496.00
2022-11-30T15:09:01.370Z,97498.00
2022-11-30T15:11:30.266Z,97503.00
2022-11-30T15:14:09.447Z,97511.00
2022-11-30T15:16:39.362Z,97511.00
2022-11-30T15:19:23.346Z,97517.00
2022-11-30T15:21:52.680Z,97512.00
2022-11-30T15:24:21.470Z,97511.00
2022-11-30T15:26:57.512Z,97500.00
2022-11-30T15:29:31.960Z,97520.00
2022-11-30T15:32:05.903Z,97510.00
2022-11-30T15:34:46.619Z,97527.00
2022-11-30T15:37:15.985Z,97466.00
2022-11-30T15:39:52.494Z,97524.00
2022-11-30T15:42:27.164Z,97525.00
2022-11-30T15:45:15.083Z,97521.00
2022-11-30T15:47:44.718Z,97527.00
2022-11-30T15:50:40.889Z,97513.00
2022-11-30T15:53:34.986Z,97441.00
2022-11-30T15:56:22.949Z,97531.00
2022-11-30T15:59:04.547Z,97505.00
2022-11-30T16:02:01.518Z,97509.00
2022-11-30T16:05:25.190Z,97518.00
2022-11-30T16:07:57.242Z,97525.00
2022-11-30T16:10:29.762Z,97541.00
2022-11-30T16:12:57.978Z,97145.00
2022-11-30T16:15:28.662Z,97516.00
2022-11-30T16:18:01.437Z,97444.00
2022-11-30T16:20:30.870Z,97533.00
2022-11-30T16:23:05.300Z,97528.00
2022-11-30T16:25:33.909Z,97523.00
2022-11-30T16:28:02.829Z,97519.00
2022-11-30T16:30:33.647Z,97525.00
2022-11-30T16:33:01.780Z,97529.00
2022-11-30T16:35:38.565Z,97533.00
2022-11-30T16:38:06.691Z,97537.00
2022-11-30T16:40:38.752Z,97532.00
2022-11-30T16:43:07.490Z,97550.00
2022-11-30T16:45:38.594Z,97535.00
2022-11-30T16:48:07.783Z,97533.00
2022-11-30T16:50:38.378Z,97537.00
2022-11-30T16:53:06.869Z,97552.00
2022-11-30T16:55:42.127Z,97550.00
2022-11-30T16:58:10.586Z,97536.00
2022-11-30T17:00:40.784Z,97537.00
2022-11-30T17:03:21.936Z,97532.00
2022-11-30T17:05:51.536Z,97545.00
2022-11-30T17:08:21.533Z,97545.00
2022-11-30T17:10:54.164Z,97559.00
2022-11-30T17:13:22.657Z,97558.00
2022-11-30T17:15:51.427Z,97541.00
2022-11-30T17:18:19.504Z,97553.00
2022-11-30T17:20:47.628Z,97545.00
2022-11-30T17:23:16.999Z,97552.00
2022-11-30T17:25:49.226Z,97556.00
2022-11-30T17:28:17.432Z,97563.00
2022-11-30T17:30:45.550Z,97572.00
2022-11-30T17:33:13.625Z,97573.00
2022-11-30T17:35:41.882Z,97577.00
2022-11-30T17:38:10.239Z,97567.00
2022-11-30T17:40:42.809Z,97572.00
2022-11-30T17:43:10.884Z,97577.00
2022-11-30T17:45:41.131Z,97578.00
2022-11-30T17:48:09.317Z,97578.00
2022-11-30T17:50:39.832Z,97546.00
2022-11-30T17:53:08.165Z,97591.00
2022-11-30T17:55:36.350Z,97594.00
2022-11-30T17:58:05.754Z,97589.00
2022-11-30T18:00:34.011Z,97586.00
2022-11-30T18:03:02.318Z,97599.00
2022-11-30T18:05:32.242Z,97587.00
2022-11-30T18:08:00.440Z,97588.00
2022-11-30T18:10:28.565Z,97597.00
2022-11-30T18:12:56.848Z,97600.00
2022-11-30T18:15:26.231Z,97609.00
2022-11-30T18:17:55.083Z,97613.00
2022-11-30T18:20:23.154Z,97621.00
2022-11-30T18:22:51.185Z,97614.00
2022-11-30T18:25:19.676Z,97605.00
2022-11-30T18:27:47.757Z,97619.00
2022-11-30T18:30:16.135Z,97608.00
2022-11-30T18:32:47.479Z,97620.00
2022-11-30T18:35:15.925Z,97616.00
2022-11-30T18:37:45.720Z,97628.00
2022-11-30T18:40:14.790Z,97631.00
2022-11-30T18:42:42.853Z,97626.00
2022-11-30T18:45:11.489Z,97633.00
2022-11-30T18:47:39.592Z,97627.00
2022-11-30T18:50:10.079Z,97623.00
2022-11-30T18:52:38.286Z,97624.00
2022-11-30T18:55:07.244Z,97632.00
2022-11-30T18:57:36.286Z,97636.00
2022-11-30T19:00:05.719Z,97621.00
2022-11-30T19:02:34.378Z,97641.00
2022-11-30T19:05:02.827Z,97623.00
2022-11-30T19:07:34.253Z,97633.00
2022-11-30T19:10:02.723Z,97625.00
2022-11-30T19:12:34.595Z,97613.00
2022-11-30T19:15:04.552Z,97643.00
2022-11-30T19:17:32.790Z,97625.00
2022-11-30T19:20:00.857Z,97622.00
2022-11-30T19:22:31.080Z,97629.00
2022-11-30T19:25:05.123Z,97639.00
2022-11-30T19:27:33.211Z,97632.00
2022-11-30T19:30:01.523Z,97636.00
2022-11-30T19:32:29.585Z,97648.00
2022-11-30T19:34:57.825Z,97633.00
2022-11-30T19:37:25.916Z,97626.00
2022-11-30T19:39:53.999Z,97634.00
2022-11-30T19:42:32.107Z,97635.00
2022-11-30T19:45:26.503Z,97636.00
2022-11-30T19:47:57.363Z,97642.00
2022-11-30T19:50:29.491Z,97639.00
2022-11-30T19:53:33.214Z,97642.00
2022-11-30T19:56:27.484Z,97646.00
2022-11-30T19:59:04.046Z,97677.00
2022-11-30T20:01:33.081Z,97657.00
2022-11-30T20:04:01.409Z,97662.00
2022-11-30T20:06:32.041Z,97654.00
2022-11-30T20:09:00.403Z,97666.00
2022-11-30T20:11:28.666Z,97673.00
2022-11-30T20:13:58.413Z,97665.00
2022-11-30T20:16:27.671Z,97662.00
2022-11-30T20:18:58.086Z,97656.00
2022-11-30T20:21:32.841Z,97672.00
2022-11-30T20:24:07.560Z,97671.00
2022-11-30T20:26:38.208Z,97684.00
2022-11-30T20:29:13.258Z,97677.00
2022-11-30T20:31:42.335Z,97665.00
2022-11-30T20:34:10.948Z,97675.00
2022-11-30T20:36:39.351Z,97661.00
2022-11-30T20:39:08.191Z,97669.00
2022-11-30T20:41:36.519Z,97656.00
2022-11-30T20:44:09.091Z,97653.00
2022-11-30T20:46:38.558Z,97671.00
2022-11-30T20:49:17.565Z,97664.00
2022-11-30T20:51:47.123Z,97646.00
2022-11-30T20:54:16.916Z,97652.00
2022-11-30T20:56:47.745Z,97649.00
2022-11-30T20:59:22.100Z,97650.00
2022-11-30T21:01:51.627Z,97653.00
2022-11-30T21:04:20.103Z,97664.00
2022-11-30T21:06:48.783Z,97662.00
2022-11-30T21:09:19.313Z,97664.00
2022-11-30T21:11:48.522Z,97671.00
2022-11-30T21:14:17.611Z,97662.00
2022-11-30T21:16:45.907Z,97666.00
2022-11-30T21:19:16.177Z,97660.00
2022-11-30T21:21:44.374Z,97658.00
2022-11-30T21:24:13.019Z,97675.00
2022-11-30T21:26:43.312Z,97681.00
2022-11-30T21:29:14.412Z,97684.00
2022-11-30T21:31:43.132Z,97674.00
2022-11-30T21:34:11.761Z,97670.00
2022-11-30T21:36:41.394Z,97672.00
2022-11-30T21:39:13.808Z,97624.00
2022-11-30T21:41:42.404Z,97675.00
2022-11-30T21:44:14.061Z,97675.00
2022-11-30T21:46:42.886Z,97637.00
2022-11-30T21:49:10.962Z,97678.00
2022-11-30T21:51:40.781Z,97614.00
2022-11-30T21:54:13.317Z,97663.00
2022-11-30T21:56:44.713Z,97651.00
2022-11-30T21:59:15.209Z,97666.00
2022-11-30T22:01:45.131Z,97672.00
2022-11-30T22:04:15.688Z,97608.00
2022-11-30T22:06:45.397Z,97664.00
2022-11-30T22:09:16.532Z,97673.00
2022-11-30T22:11:46.095Z,97669.00
2022-11-30T22:14:16.955Z,97680.00
2022-11-30T22:16:45.722Z,97679.00
2022-11-30T22:19:14.319Z,97675.00
2022-11-30T22:21:48.260Z,97616.00
2022-11-30T22:24:19.274Z,97668.00
2022-11-30T22:26:48.971Z,97668.00
2022-11-30T22:29:20.589Z,97670.00
2022-11-30T22:31:52.077Z,97649.00
2022-11-30T22:34:20.911Z,97655.00
2022-11-30T22:36:49.308Z,97660.00
2022-11-30T22:39:22.290Z,97657.00
2022-11-30T22:41:55.677Z,97667.00
2022-11-30T22:44:25.628Z,97666.00
2022-11-30T22:46:53.845Z,97673.00
2022-11-30T22:49:22.279Z,97674.00
2022-11-30T22:51:51.458Z,97659.00
2022-11-30T22:54:20.948Z,97664.00
2022-11-30T22:56:49.058Z,97678.00
2022-11-30T22:59:17.580Z,97671.00
2022-11-30T23:01:48.721Z,97675.00
2022-11-30T23:04:19.904Z,97657.00
2022-11-30T23:06:49.597Z,97644.00
2022-11-30T23:09:23.062Z,97644.00
2022-11-30T23:11:52.656Z,97647.00
2022-11-30T23:14:21.120Z,97642.00
2022-11-30T23:16:49.360Z,97638.00
2022-11-30T23:19:18.220Z,97647.00
2022-11-30T23:21:46.329Z,97653.00
2022-11-30T23:24:17.465Z,97646.00
2022-11-30T23:26:48.059Z,97648.00
2022-11-30T23:29:18.046Z,97621.00
2022-11-30T23:31:47.760Z,97653.00
2022-11-30T23:34:22.199Z,97669.00
2022-11-30T23:36:51.429Z,97670.00
2022-11-30T23:39:20.929Z,97642.00
2022-11-30T23:41:50.850Z,97643.00
2022-11-30T23:44:18.894Z,97628.00
2022-11-30T23:46:47.102Z,97623.00
2022-11-30T23:49:15.895Z,97605.00
2022-11-30T23:51:44.318Z,97614.00
2022-11-30T23:54:12.394Z,97638.00
2022-11-30T23:56:40.448Z,97630.00
2022-11-30T23:59:09.839Z,97612.00
